This is the latest recevied weather packets stored in our database for station/object N9CQS-15. If no packets are shown the sender has not sent any weather packets the latest 10 day(s).
| Time | Temp. | Humidity | Pressure | Rain* | Wind** | Luminosity | Snow |
|---|---|---|---|---|---|---|---|
| 1777499341 | 16.11° C | 50% | 1014.8 hPa | 0 mm | - | - | - |
| 1777498741 | 15.56° C | 52% | 1014.8 hPa | 0 mm | - | - | - |
| 1777498141 | 16.67° C | 46% | 1014.7 hPa | 0 mm | - | - | - |
| 1777497541 | 16.11° C | 51% | 1014.8 hPa | 0 mm | - | - | - |
| 1777496941 | 17.22° C | 48% | 1014.8 hPa | 0 mm | - | - | - |
| 1777496342 | 15.56° C | 53% | 1015 hPa | 0 mm | - | - | - |
| 1777495742 | 16.11° C | 50% | 1014.9 hPa | 0 mm | - | - | - |
| 1777495142 | 16.11° C | 51% | 1014.8 hPa | 0 mm | - | - | - |
| 1777494542 | 17.22° C | 50% | 1015 hPa | 0 mm | - | - | - |
| 1777493942 | 16.67° C | 52% | 1015 hPa | 0 mm | - | - | - |
| 1777493341 | 16.67° C | 53% | 1015 hPa | 0 mm | - | - | - |
| 1777492741 | 17.22° C | 52% | 1015.2 hPa | 0 mm | - | - | - |
| 1777492142 | 18.33° C | 51% | 1014.9 hPa | 0 mm | - | - | - |
| 1777491541 | 17.78° C | 54% | 1015 hPa | 0 mm | - | - | - |
| 1777490941 | 17.78° C | 54% | 1015 hPa | 0 mm | - | - | - |
| 1777490341 | 17.22° C | 54% | 1015.1 hPa | 0 mm | - | - | - |
| 1777489741 | 16.67° C | 56% | 1015.1 hPa | 0 mm | - | - | - |
| 1777489142 | 17.78° C | 55% | 1014.9 hPa | 0 mm | - | - | - |
| 1777488541 | 17.22° C | 57% | 1014.9 hPa | 0 mm | - | - | - |
| 1777487942 | 17.78° C | 55% | 1014.7 hPa | 0 mm | - | - | - |
| 1777487342 | 16.67° C | 58% | 1014.7 hPa | 0 mm | - | - | - |
| 1777486742 | 16.67° C | 58% | 1014.7 hPa | 0 mm | - | - | - |
| 1777486142 | 16.67° C | 58% | 1014.7 hPa | 0 mm | - | - | - |
| 1777485542 | 17.22° C | 57% | 1014.5 hPa | 0 mm | - | - | - |
| 1777484942 | 17.78° C | 57% | 1014.6 hPa | 0 mm | - | - | - |
* Rain latest hour (hover to see other rain measurements)
** Current wind speed in m/s (hover to see current wind gust speed)